sensor_id;sensor_type;location;lat;lon;timestamp;temperature;humidity
18406;DHT22;9329;48.720;9.588;2022-08-21T00:01:44;18.20;99.90
18406;DHT22;9329;48.720;9.588;2022-08-21T00:04:12;18.20;99.90
18406;DHT22;9329;48.720;9.588;2022-08-21T00:06:39;18.00;99.90
18406;DHT22;9329;48.720;9.588;2022-08-21T00:09:08;17.90;99.90
18406;DHT22;9329;48.720;9.588;2022-08-21T00:11:37;17.80;99.90
18406;DHT22;9329;48.720;9.588;2022-08-21T00:14:08;17.80;99.90
18406;DHT22;9329;48.720;9.588;2022-08-21T00:16:35;18.10;99.90
18406;DHT22;9329;48.720;9.588;2022-08-21T00:19:02;18.20;99.90
18406;DHT22;9329;48.720;9.588;2022-08-21T00:21:31;18.20;99.90
18406;DHT22;9329;48.720;9.588;2022-08-21T00:23:58;18.40;99.90
18406;DHT22;9329;48.720;9.588;2022-08-21T00:26:25;18.70;99.90
18406;DHT22;9329;48.720;9.588;2022-08-21T00:28:52;18.90;99.90
18406;DHT22;9329;48.720;9.588;2022-08-21T00:31:19;19.10;99.90
18406;DHT22;9329;48.720;9.588;2022-08-21T00:33:46;18.90;99.90
18406;DHT22;9329;48.720;9.588;2022-08-21T00:36:13;18.40;99.90
18406;DHT22;9329;48.720;9.588;2022-08-21T00:38:42;18.20;99.90
18406;DHT22;9329;48.720;9.588;2022-08-21T00:41:10;17.70;99.90
18406;DHT22;9329;48.720;9.588;2022-08-21T00:43:38;17.70;99.90
18406;DHT22;9329;48.720;9.588;2022-08-21T00:46:06;18.10;99.90
18406;DHT22;9329;48.720;9.588;2022-08-21T00:48:34;18.40;99.90
18406;DHT22;9329;48.720;9.588;2022-08-21T00:51:05;18.60;99.90
18406;DHT22;9329;48.720;9.588;2022-08-21T00:53:33;18.80;99.90
18406;DHT22;9329;48.720;9.588;2022-08-21T00:56:05;18.90;99.90
18406;DHT22;9329;48.720;9.588;2022-08-21T00:58:34;18.70;99.90
18406;DHT22;9329;48.720;9.588;2022-08-21T01:01:05;18.50;99.90
18406;DHT22;9329;48.720;9.588;2022-08-21T01:03:33;18.40;99.90
18406;DHT22;9329;48.720;9.588;2022-08-21T01:06:02;18.70;99.90
18406;DHT22;9329;48.720;9.588;2022-08-21T01:08:30;18.30;99.90
18406;DHT22;9329;48.720;9.588;2022-08-21T01:11:01;17.60;99.90
18406;DHT22;9329;48.720;9.588;2022-08-21T01:13:32;17.50;99.90
18406;DHT22;9329;48.720;9.588;2022-08-21T01:16:04;17.30;99.90
18406;DHT22;9329;48.720;9.588;2022-08-21T01:18:31;17.10;99.90
18406;DHT22;9329;48.720;9.588;2022-08-21T01:21:06;17.30;99.90
18406;DHT22;9329;48.720;9.588;2022-08-21T01:23:34;17.40;99.90
18406;DHT22;9329;48.720;9.588;2022-08-21T01:26:02;17.90;99.90
18406;DHT22;9329;48.720;9.588;2022-08-21T01:28:31;18.10;99.90
18406;DHT22;9329;48.720;9.588;2022-08-21T01:31:01;18.30;99.90
18406;DHT22;9329;48.720;9.588;2022-08-21T01:33:29;17.90;99.90
18406;DHT22;9329;48.720;9.588;2022-08-21T01:35:56;17.50;99.90
18406;DHT22;9329;48.720;9.588;2022-08-21T01:38:26;17.30;99.90
18406;DHT22;9329;48.720;9.588;2022-08-21T01:40:53;17.10;99.90
18406;DHT22;9329;48.720;9.588;2022-08-21T01:43:20;17.30;99.90
18406;DHT22;9329;48.720;9.588;2022-08-21T01:45:47;17.40;99.90
18406;DHT22;9329;48.720;9.588;2022-08-21T01:48:14;17.30;99.90
18406;DHT22;9329;48.720;9.588;2022-08-21T01:50:41;17.30;99.90
18406;DHT22;9329;48.720;9.588;2022-08-21T01:53:08;17.20;99.90
18406;DHT22;9329;48.720;9.588;2022-08-21T01:55:37;17.30;99.90
18406;DHT22;9329;48.720;9.588;2022-08-21T01:58:04;17.20;99.90
18406;DHT22;9329;48.720;9.588;2022-08-21T02:00:31;17.00;99.90
18406;DHT22;9329;48.720;9.588;2022-08-21T02:02:58;17.20;99.90
18406;DHT22;9329;48.720;9.588;2022-08-21T02:05:25;17.50;99.90
18406;DHT22;9329;48.720;9.588;2022-08-21T02:07:54;17.20;99.90
18406;DHT22;9329;48.720;9.588;2022-08-21T02:10:23;17.20;99.90
18406;DHT22;9329;48.720;9.588;2022-08-21T02:12:53;17.10;99.90
18406;DHT22;9329;48.720;9.588;2022-08-21T02:15:21;17.20;99.90
18406;DHT22;9329;48.720;9.588;2022-08-21T02:17:50;17.30;99.90
18406;DHT22;9329;48.720;9.588;2022-08-21T02:20:22;17.50;99.90
18406;DHT22;9329;48.720;9.588;2022-08-21T02:22:50;17.40;99.90
18406;DHT22;9329;48.720;9.588;2022-08-21T02:25:17;17.30;99.90
18406;DHT22;9329;48.720;9.588;2022-08-21T02:27:46;17.50;99.90
18406;DHT22;9329;48.720;9.588;2022-08-21T02:30:16;17.40;99.90
18406;DHT22;9329;48.720;9.588;2022-08-21T02:32:44;17.20;99.90
18406;DHT22;9329;48.720;9.588;2022-08-21T02:35:12;17.60;99.90
18406;DHT22;9329;48.720;9.588;2022-08-21T02:37:44;17.60;99.90
18406;DHT22;9329;48.720;9.588;2022-08-21T02:40:12;17.70;99.90
18406;DHT22;9329;48.720;9.588;2022-08-21T02:42:40;17.60;99.90
18406;DHT22;9329;48.720;9.588;2022-08-21T02:45:07;17.70;99.90
18406;DHT22;9329;48.720;9.588;2022-08-21T02:47:36;17.50;99.90
18406;DHT22;9329;48.720;9.588;2022-08-21T02:50:03;17.30;99.90
18406;DHT22;9329;48.720;9.588;2022-08-21T02:52:31;17.00;99.90
18406;DHT22;9329;48.720;9.588;2022-08-21T02:54:59;16.80;99.90
18406;DHT22;9329;48.720;9.588;2022-08-21T02:57:26;16.90;99.90
18406;DHT22;9329;48.720;9.588;2022-08-21T02:59:53;16.50;99.90
18406;DHT22;9329;48.720;9.588;2022-08-21T03:02:20;16.60;99.90
18406;DHT22;9329;48.720;9.588;2022-08-21T03:04:49;16.40;99.90
18406;DHT22;9329;48.720;9.588;2022-08-21T03:07:16;16.30;99.90
18406;DHT22;9329;48.720;9.588;2022-08-21T03:09:43;16.50;99.90
18406;DHT22;9329;48.720;9.588;2022-08-21T03:12:11;16.30;99.90
18406;DHT22;9329;48.720;9.588;2022-08-21T03:14:38;16.40;99.90
18406;DHT22;9329;48.720;9.588;2022-08-21T03:17:05;16.30;99.90
18406;DHT22;9329;48.720;9.588;2022-08-21T03:19:32;16.10;99.90
18406;DHT22;9329;48.720;9.588;2022-08-21T03:22:01;15.90;99.90
18406;DHT22;9329;48.720;9.588;2022-08-21T03:24:28;16.00;99.90
18406;DHT22;9329;48.720;9.588;2022-08-21T03:26:55;16.10;99.90
18406;DHT22;9329;48.720;9.588;2022-08-21T03:29:22;16.80;99.90
18406;DHT22;9329;48.720;9.588;2022-08-21T03:31:49;17.00;99.90
18406;DHT22;9329;48.720;9.588;2022-08-21T03:34:19;17.20;99.90
18406;DHT22;9329;48.720;9.588;2022-08-21T03:36:46;17.20;99.90
18406;DHT22;9329;48.720;9.588;2022-08-21T03:39:16;17.20;99.90
18406;DHT22;9329;48.720;9.588;2022-08-21T03:41:44;16.80;99.90
18406;DHT22;9329;48.720;9.588;2022-08-21T03:44:11;16.50;99.90
18406;DHT22;9329;48.720;9.588;2022-08-21T03:46:39;16.40;99.90
18406;DHT22;9329;48.720;9.588;2022-08-21T03:49:09;16.70;99.90
18406;DHT22;9329;48.720;9.588;2022-08-21T03:51:36;17.10;99.90
18406;DHT22;9329;48.720;9.588;2022-08-21T03:54:03;17.20;99.90
18406;DHT22;9329;48.720;9.588;2022-08-21T03:56:32;17.30;99.90
18406;DHT22;9329;48.720;9.588;2022-08-21T03:58:59;17.20;99.90
18406;DHT22;9329;48.720;9.588;2022-08-21T04:01:28;17.30;99.90
18406;DHT22;9329;48.720;9.588;2022-08-21T04:03:55;17.20;99.90
18406;DHT22;9329;48.720;9.588;2022-08-21T04:06:22;17.30;99.90
18406;DHT22;9329;48.720;9.588;2022-08-21T04:08:49;17.10;99.90
18406;DHT22;9329;48.720;9.588;2022-08-21T04:11:16;17.10;99.90
18406;DHT22;9329;48.720;9.588;2022-08-21T04:16:15;17.20;99.90
18406;DHT22;9329;48.720;9.588;2022-08-21T04:18:42;17.10;99.90
18406;DHT22;9329;48.720;9.588;2022-08-21T04:21:10;17.20;99.90
18406;DHT22;9329;48.720;9.588;2022-08-21T04:23:38;17.00;99.90
18406;DHT22;9329;48.720;9.588;2022-08-21T04:26:05;16.90;99.90
18406;DHT22;9329;48.720;9.588;2022-08-21T04:28:32;16.80;99.90
18406;DHT22;9329;48.720;9.588;2022-08-21T04:30:59;16.80;99.90
18406;DHT22;9329;48.720;9.588;2022-08-21T04:33:27;16.70;99.90
18406;DHT22;9329;48.720;9.588;2022-08-21T04:35:54;16.20;99.90
18406;DHT22;9329;48.720;9.588;2022-08-21T04:38:21;15.90;99.90
18406;DHT22;9329;48.720;9.588;2022-08-21T04:40:49;15.80;99.90
18406;DHT22;9329;48.720;9.588;2022-08-21T04:43:17;16.40;99.90
18406;DHT22;9329;48.720;9.588;2022-08-21T04:45:46;16.20;99.90
18406;DHT22;9329;48.720;9.588;2022-08-21T04:48:16;16.10;99.90
18406;DHT22;9329;48.720;9.588;2022-08-21T04:50:48;15.90;99.90
18406;DHT22;9329;48.720;9.588;2022-08-21T04:53:19;15.70;99.90
18406;DHT22;9329;48.720;9.588;2022-08-21T04:55:48;16.10;99.90
18406;DHT22;9329;48.720;9.588;2022-08-21T04:58:19;15.60;99.90
18406;DHT22;9329;48.720;9.588;2022-08-21T05:00:47;16.20;99.90
18406;DHT22;9329;48.720;9.588;2022-08-21T05:03:16;16.20;99.90
18406;DHT22;9329;48.720;9.588;2022-08-21T05:05:45;16.30;99.90
18406;DHT22;9329;48.720;9.588;2022-08-21T05:08:16;16.30;99.90
18406;DHT22;9329;48.720;9.588;2022-08-21T05:10:45;16.30;99.90
18406;DHT22;9329;48.720;9.588;2022-08-21T05:13:12;16.30;99.90
18406;DHT22;9329;48.720;9.588;2022-08-21T05:15:40;16.20;99.90
18406;DHT22;9329;48.720;9.588;2022-08-21T05:18:09;16.20;99.90
18406;DHT22;9329;48.720;9.588;2022-08-21T05:20:36;16.30;99.90
18406;DHT22;9329;48.720;9.588;2022-08-21T05:23:08;16.40;99.90
18406;DHT22;9329;48.720;9.588;2022-08-21T05:25:36;16.20;99.90
18406;DHT22;9329;48.720;9.588;2022-08-21T05:28:04;16.30;99.90
18406;DHT22;9329;48.720;9.588;2022-08-21T05:30:31;16.40;99.90
18406;DHT22;9329;48.720;9.588;2022-08-21T05:32:59;16.30;99.90
18406;DHT22;9329;48.720;9.588;2022-08-21T05:35:27;16.30;99.90
18406;DHT22;9329;48.720;9.588;2022-08-21T05:37:55;16.40;99.90
18406;DHT22;9329;48.720;9.588;2022-08-21T05:40:24;16.60;99.90
18406;DHT22;9329;48.720;9.588;2022-08-21T05:42:53;16.00;99.90
18406;DHT22;9329;48.720;9.588;2022-08-21T05:45:21;16.00;99.90
18406;DHT22;9329;48.720;9.588;2022-08-21T05:47:48;16.10;99.90
18406;DHT22;9329;48.720;9.588;2022-08-21T05:50:15;16.50;99.90
18406;DHT22;9329;48.720;9.588;2022-08-21T05:52:42;16.80;99.90
18406;DHT22;9329;48.720;9.588;2022-08-21T05:55:09;17.10;99.90
18406;DHT22;9329;48.720;9.588;2022-08-21T05:57:37;17.10;99.90
18406;DHT22;9329;48.720;9.588;2022-08-21T06:00:07;17.30;99.90
18406;DHT22;9329;48.720;9.588;2022-08-21T06:02:38;17.90;99.90
18406;DHT22;9329;48.720;9.588;2022-08-21T06:05:06;18.00;99.90
18406;DHT22;9329;48.720;9.588;2022-08-21T06:07:33;17.60;99.90
18406;DHT22;9329;48.720;9.588;2022-08-21T06:10:00;17.70;99.90
18406;DHT22;9329;48.720;9.588;2022-08-21T06:12:27;17.30;99.90
18406;DHT22;9329;48.720;9.588;2022-08-21T06:14:55;17.40;99.90
18406;DHT22;9329;48.720;9.588;2022-08-21T06:17:22;17.10;99.90
18406;DHT22;9329;48.720;9.588;2022-08-21T06:19:51;17.20;99.90
18406;DHT22;9329;48.720;9.588;2022-08-21T06:22:19;17.10;99.90
18406;DHT22;9329;48.720;9.588;2022-08-21T06:24:46;17.20;99.90
18406;DHT22;9329;48.720;9.588;2022-08-21T06:27:13;17.20;99.90
18406;DHT22;9329;48.720;9.588;2022-08-21T06:29:41;17.30;99.90
18406;DHT22;9329;48.720;9.588;2022-08-21T06:32:11;17.80;99.90
18406;DHT22;9329;48.720;9.588;2022-08-21T06:34:40;17.90;99.90
18406;DHT22;9329;48.720;9.588;2022-08-21T06:37:07;17.90;99.90
18406;DHT22;9329;48.720;9.588;2022-08-21T06:39:35;17.70;99.90
18406;DHT22;9329;48.720;9.588;2022-08-21T06:42:02;17.90;99.90
18406;DHT22;9329;48.720;9.588;2022-08-21T06:44:29;18.10;99.90
18406;DHT22;9329;48.720;9.588;2022-08-21T06:46:57;18.40;99.90
18406;DHT22;9329;48.720;9.588;2022-08-21T06:49:25;18.40;99.90
18406;DHT22;9329;48.720;9.588;2022-08-21T06:51:52;18.40;99.90
18406;DHT22;9329;48.720;9.588;2022-08-21T06:54:19;18.50;99.90
18406;DHT22;9329;48.720;9.588;2022-08-21T06:56:47;18.80;99.90
18406;DHT22;9329;48.720;9.588;2022-08-21T06:59:14;18.80;99.90
18406;DHT22;9329;48.720;9.588;2022-08-21T07:01:41;19.10;99.90
18406;DHT22;9329;48.720;9.588;2022-08-21T07:04:08;19.10;99.90
18406;DHT22;9329;48.720;9.588;2022-08-21T07:06:36;18.90;99.90
18406;DHT22;9329;48.720;9.588;2022-08-21T07:09:03;18.90;99.90
18406;DHT22;9329;48.720;9.588;2022-08-21T07:11:31;19.20;99.90
18406;DHT22;9329;48.720;9.588;2022-08-21T07:13:58;19.30;99.90
18406;DHT22;9329;48.720;9.588;2022-08-21T07:16:25;19.30;99.90
18406;DHT22;9329;48.720;9.588;2022-08-21T07:18:52;19.50;99.90
18406;DHT22;9329;48.720;9.588;2022-08-21T07:21:19;19.60;99.90
18406;DHT22;9329;48.720;9.588;2022-08-21T07:23:50;19.70;99.90
18406;DHT22;9329;48.720;9.588;2022-08-21T07:26:20;19.90;99.90
18406;DHT22;9329;48.720;9.588;2022-08-21T07:28:47;19.90;99.90
18406;DHT22;9329;48.720;9.588;2022-08-21T07:31:16;20.00;99.90
18406;DHT22;9329;48.720;9.588;2022-08-21T07:33:44;19.90;99.90
18406;DHT22;9329;48.720;9.588;2022-08-21T07:36:11;20.10;99.90
18406;DHT22;9329;48.720;9.588;2022-08-21T07:38:38;20.10;99.90
18406;DHT22;9329;48.720;9.588;2022-08-21T07:41:12;20.30;99.90
18406;DHT22;9329;48.720;9.588;2022-08-21T07:43:40;20.50;99.90
18406;DHT22;9329;48.720;9.588;2022-08-21T07:46:07;20.70;99.90
18406;DHT22;9329;48.720;9.588;2022-08-21T07:48:34;20.70;99.90
18406;DHT22;9329;48.720;9.588;2022-08-21T07:51:06;20.60;99.90
18406;DHT22;9329;48.720;9.588;2022-08-21T07:53:33;20.70;99.90
18406;DHT22;9329;48.720;9.588;2022-08-21T07:56:00;20.80;99.90
18406;DHT22;9329;48.720;9.588;2022-08-21T07:58:29;21.00;99.90
18406;DHT22;9329;48.720;9.588;2022-08-21T08:00:56;21.10;99.90
18406;DHT22;9329;48.720;9.588;2022-08-21T08:03:24;21.00;99.90
18406;DHT22;9329;48.720;9.588;2022-08-21T08:05:51;21.00;99.90
18406;DHT22;9329;48.720;9.588;2022-08-21T08:08:18;21.30;99.90
18406;DHT22;9329;48.720;9.588;2022-08-21T08:10:45;21.50;99.90
18406;DHT22;9329;48.720;9.588;2022-08-21T08:13:14;21.50;99.90
18406;DHT22;9329;48.720;9.588;2022-08-21T08:15:43;21.80;99.90
18406;DHT22;9329;48.720;9.588;2022-08-21T08:18:10;21.90;99.90
18406;DHT22;9329;48.720;9.588;2022-08-21T08:20:38;21.80;99.90
18406;DHT22;9329;48.720;9.588;2022-08-21T08:23:06;22.30;99.90
18406;DHT22;9329;48.720;9.588;2022-08-21T08:25:33;22.20;99.90
18406;DHT22;9329;48.720;9.588;2022-08-21T08:28:00;22.30;99.90
18406;DHT22;9329;48.720;9.588;2022-08-21T08:30:27;22.30;99.90
18406;DHT22;9329;48.720;9.588;2022-08-21T08:32:56;22.40;99.90
18406;DHT22;9329;48.720;9.588;2022-08-21T08:35:25;22.70;99.90
18406;DHT22;9329;48.720;9.588;2022-08-21T08:37:54;22.60;99.90
18406;DHT22;9329;48.720;9.588;2022-08-21T08:40:28;22.50;99.90
18406;DHT22;9329;48.720;9.588;2022-08-21T08:42:59;22.40;99.90
18406;DHT22;9329;48.720;9.588;2022-08-21T08:45:26;22.70;99.90
18406;DHT22;9329;48.720;9.588;2022-08-21T08:48:01;22.60;99.90
18406;DHT22;9329;48.720;9.588;2022-08-21T08:50:37;22.80;99.90
18406;DHT22;9329;48.720;9.588;2022-08-21T08:53:10;23.00;99.90
18406;DHT22;9329;48.720;9.588;2022-08-21T08:55:40;23.00;99.90
18406;DHT22;9329;48.720;9.588;2022-08-21T08:58:09;23.60;99.90
18406;DHT22;9329;48.720;9.588;2022-08-21T09:00:38;23.40;99.90
18406;DHT22;9329;48.720;9.588;2022-08-21T09:03:07;23.70;99.90
18406;DHT22;9329;48.720;9.588;2022-08-21T09:05:43;24.00;99.90
18406;DHT22;9329;48.720;9.588;2022-08-21T09:08:24;23.90;99.90
18406;DHT22;9329;48.720;9.588;2022-08-21T09:11:01;24.10;99.90
18406;DHT22;9329;48.720;9.588;2022-08-21T09:13:37;24.30;99.90
18406;DHT22;9329;48.720;9.588;2022-08-21T09:16:13;24.00;99.90
18406;DHT22;9329;48.720;9.588;2022-08-21T09:18:56;23.70;99.90
18406;DHT22;9329;48.720;9.588;2022-08-21T09:21:31;24.00;99.90
18406;DHT22;9329;48.720;9.588;2022-08-21T09:24:12;24.20;99.90
18406;DHT22;9329;48.720;9.588;2022-08-21T09:26:48;24.30;99.90
18406;DHT22;9329;48.720;9.588;2022-08-21T09:29:16;24.20;99.90
18406;DHT22;9329;48.720;9.588;2022-08-21T09:31:44;24.50;99.90
18406;DHT22;9329;48.720;9.588;2022-08-21T09:34:12;24.70;99.90
18406;DHT22;9329;48.720;9.588;2022-08-21T09:36:50;24.60;99.90
18406;DHT22;9329;48.720;9.588;2022-08-21T09:39:24;24.60;99.90
18406;DHT22;9329;48.720;9.588;2022-08-21T09:41:56;24.90;99.90
18406;DHT22;9329;48.720;9.588;2022-08-21T09:44:26;24.90;99.90
18406;DHT22;9329;48.720;9.588;2022-08-21T09:46:54;25.20;99.90
18406;DHT22;9329;48.720;9.588;2022-08-21T09:49:30;25.10;99.90
18406;DHT22;9329;48.720;9.588;2022-08-21T09:51:58;25.40;99.90
18406;DHT22;9329;48.720;9.588;2022-08-21T09:54:30;25.50;99.90
18406;DHT22;9329;48.720;9.588;2022-08-21T09:56:59;25.40;99.90
18406;DHT22;9329;48.720;9.588;2022-08-21T09:59:47;25.20;99.90
18406;DHT22;9329;48.720;9.588;2022-08-21T10:02:23;25.60;99.90
18406;DHT22;9329;48.720;9.588;2022-08-21T10:04:55;25.80;99.90
18406;DHT22;9329;48.720;9.588;2022-08-21T10:07:24;25.90;99.90
18406;DHT22;9329;48.720;9.588;2022-08-21T10:10:00;26.00;99.90
18406;DHT22;9329;48.720;9.588;2022-08-21T10:12:31;26.20;99.90
18406;DHT22;9329;48.720;9.588;2022-08-21T10:15:08;26.50;99.90
18406;DHT22;9329;48.720;9.588;2022-08-21T10:17:44;26.30;99.90
18406;DHT22;9329;48.720;9.588;2022-08-21T10:20:23;26.30;99.90
18406;DHT22;9329;48.720;9.588;2022-08-21T10:23:01;26.60;99.90
18406;DHT22;9329;48.720;9.588;2022-08-21T10:25:34;26.40;99.90
18406;DHT22;9329;48.720;9.588;2022-08-21T10:28:09;26.70;99.50
18406;DHT22;9329;48.720;9.588;2022-08-21T10:30:46;26.90;99.30
18406;DHT22;9329;48.720;9.588;2022-08-21T10:33:26;27.40;99.90
18406;DHT22;9329;48.720;9.588;2022-08-21T10:36:02;27.20;97.80
18406;DHT22;9329;48.720;9.588;2022-08-21T10:38:59;27.50;96.80
18406;DHT22;9329;48.720;9.588;2022-08-21T10:41:41;27.30;96.30
18406;DHT22;9329;48.720;9.588;2022-08-21T10:44:21;27.50;95.50
18406;DHT22;9329;48.720;9.588;2022-08-21T10:46:54;27.60;96.20
18406;DHT22;9329;48.720;9.588;2022-08-21T10:49:33;27.80;94.60
18406;DHT22;9329;48.720;9.588;2022-08-21T10:52:16;27.90;96.20
18406;DHT22;9329;48.720;9.588;2022-08-21T10:54:50;27.80;95.60
18406;DHT22;9329;48.720;9.588;2022-08-21T10:57:22;28.30;95.60
18406;DHT22;9329;48.720;9.588;2022-08-21T10:59:57;28.50;95.50
18406;DHT22;9329;48.720;9.588;2022-08-21T11:02:30;28.60;93.20
18406;DHT22;9329;48.720;9.588;2022-08-21T11:05:04;28.50;90.50
18406;DHT22;9329;48.720;9.588;2022-08-21T11:07:36;28.80;95.20
18406;DHT22;9329;48.720;9.588;2022-08-21T11:10:11;28.50;95.10
18406;DHT22;9329;48.720;9.588;2022-08-21T11:12:43;28.80;95.10
18406;DHT22;9329;48.720;9.588;2022-08-21T11:18:17;28.40;93.80
18406;DHT22;9329;48.720;9.588;2022-08-21T11:20:52;28.00;94.50
18406;DHT22;9329;48.720;9.588;2022-08-21T11:23:28;28.30;95.20
18406;DHT22;9329;48.720;9.588;2022-08-21T11:26:01;28.60;93.00
18406;DHT22;9329;48.720;9.588;2022-08-21T11:28:33;28.80;91.50
18406;DHT22;9329;48.720;9.588;2022-08-21T11:31:10;28.70;92.00
18406;DHT22;9329;48.720;9.588;2022-08-21T11:33:52;28.50;90.00
18406;DHT22;9329;48.720;9.588;2022-08-21T11:36:26;28.60;89.60
18406;DHT22;9329;48.720;9.588;2022-08-21T11:39:01;28.20;88.80
18406;DHT22;9329;48.720;9.588;2022-08-21T11:41:34;27.80;90.30
18406;DHT22;9329;48.720;9.588;2022-08-21T11:44:10;28.40;91.80
18406;DHT22;9329;48.720;9.588;2022-08-21T11:46:44;28.60;90.20
18406;DHT22;9329;48.720;9.588;2022-08-21T11:49:40;28.40;91.60
18406;DHT22;9329;48.720;9.588;2022-08-21T11:52:15;28.60;89.60
18406;DHT22;9329;48.720;9.588;2022-08-21T11:54:48;29.00;90.30
18406;DHT22;9329;48.720;9.588;2022-08-21T11:57:23;29.00;90.70
18406;DHT22;9329;48.720;9.588;2022-08-21T11:59:55;29.10;91.20
18406;DHT22;9329;48.720;9.588;2022-08-21T12:02:30;29.20;88.80
18406;DHT22;9329;48.720;9.588;2022-08-21T12:05:05;29.10;89.10
18406;DHT22;9329;48.720;9.588;2022-08-21T12:07:36;28.70;87.40
18406;DHT22;9329;48.720;9.588;2022-08-21T12:10:08;28.80;83.90
18406;DHT22;9329;48.720;9.588;2022-08-21T12:12:38;28.80;87.30
18406;DHT22;9329;48.720;9.588;2022-08-21T12:15:16;28.30;79.70
18406;DHT22;9329;48.720;9.588;2022-08-21T12:18:00;29.50;83.00
18406;DHT22;9329;48.720;9.588;2022-08-21T12:20:43;31.20;78.90
18406;DHT22;9329;48.720;9.588;2022-08-21T12:23:24;33.70;69.80
18406;DHT22;9329;48.720;9.588;2022-08-21T12:26:17;36.00;60.50
18406;DHT22;9329;48.720;9.588;2022-08-21T12:28:46;37.50;55.20
18406;DHT22;9329;48.720;9.588;2022-08-21T12:31:19;38.60;54.30
18406;DHT22;9329;48.720;9.588;2022-08-21T12:33:52;39.30;49.90
18406;DHT22;9329;48.720;9.588;2022-08-21T12:36:23;40.50;44.40
18406;DHT22;9329;48.720;9.588;2022-08-21T12:38:54;42.10;42.40
18406;DHT22;9329;48.720;9.588;2022-08-21T12:41:26;42.60;37.70
18406;DHT22;9329;48.720;9.588;2022-08-21T12:43:59;43.00;40.00
18406;DHT22;9329;48.720;9.588;2022-08-21T12:46:32;44.00;38.50
18406;DHT22;9329;48.720;9.588;2022-08-21T12:49:06;43.70;34.90
18406;DHT22;9329;48.720;9.588;2022-08-21T12:51:42;43.60;34.20
18406;DHT22;9329;48.720;9.588;2022-08-21T12:54:23;43.70;33.30
18406;DHT22;9329;48.720;9.588;2022-08-21T12:56:58;44.30;29.80
18406;DHT22;9329;48.720;9.588;2022-08-21T12:59:26;44.80;31.20
18406;DHT22;9329;48.720;9.588;2022-08-21T13:01:53;45.50;31.60
18406;DHT22;9329;48.720;9.588;2022-08-21T13:04:27;44.40;31.90
18406;DHT22;9329;48.720;9.588;2022-08-21T13:06:58;44.10;31.10
18406;DHT22;9329;48.720;9.588;2022-08-21T13:09:28;44.20;31.70
18406;DHT22;9329;48.720;9.588;2022-08-21T13:11:59;44.10;31.00
18406;DHT22;9329;48.720;9.588;2022-08-21T13:14:30;45.50;32.80
18406;DHT22;9329;48.720;9.588;2022-08-21T13:16:59;45.50;28.10
18406;DHT22;9329;48.720;9.588;2022-08-21T13:19:27;46.10;27.90
18406;DHT22;9329;48.720;9.588;2022-08-21T13:21:56;46.00;27.20
18406;DHT22;9329;48.720;9.588;2022-08-21T13:24:26;46.50;26.70
18406;DHT22;9329;48.720;9.588;2022-08-21T13:26:54;46.90;26.70
18406;DHT22;9329;48.720;9.588;2022-08-21T13:29:27;47.00;28.20
18406;DHT22;9329;48.720;9.588;2022-08-21T13:31:57;45.10;29.20
18406;DHT22;9329;48.720;9.588;2022-08-21T13:34:28;44.90;30.90
18406;DHT22;9329;48.720;9.588;2022-08-21T13:36:59;45.50;27.70
18406;DHT22;9329;48.720;9.588;2022-08-21T13:39:27;46.00;27.70
18406;DHT22;9329;48.720;9.588;2022-08-21T13:41:56;46.00;26.30
18406;DHT22;9329;48.720;9.588;2022-08-21T13:44:34;47.00;27.30
18406;DHT22;9329;48.720;9.588;2022-08-21T13:47:04;46.80;26.90
18406;DHT22;9329;48.720;9.588;2022-08-21T13:49:35;47.20;27.30
18406;DHT22;9329;48.720;9.588;2022-08-21T13:52:05;46.50;27.40
18406;DHT22;9329;48.720;9.588;2022-08-21T13:54:41;46.20;26.40
18406;DHT22;9329;48.720;9.588;2022-08-21T13:57:16;45.60;26.60
18406;DHT22;9329;48.720;9.588;2022-08-21T13:59:45;45.20;31.30
18406;DHT22;9329;48.720;9.588;2022-08-21T14:02:15;46.30;26.40
18406;DHT22;9329;48.720;9.588;2022-08-21T14:04:50;47.10;27.80
18406;DHT22;9329;48.720;9.588;2022-08-21T14:07:20;46.80;26.40
18406;DHT22;9329;48.720;9.588;2022-08-21T14:09:48;46.10;26.80
18406;DHT22;9329;48.720;9.588;2022-08-21T14:12:17;45.70;29.80
18406;DHT22;9329;48.720;9.588;2022-08-21T14:14:47;47.00;28.30
18406;DHT22;9329;48.720;9.588;2022-08-21T14:17:26;46.70;27.90
18406;DHT22;9329;48.720;9.588;2022-08-21T14:20:02;46.50;27.10
18406;DHT22;9329;48.720;9.588;2022-08-21T14:22:38;45.60;26.70
18406;DHT22;9329;48.720;9.588;2022-08-21T14:25:07;45.40;26.80
18406;DHT22;9329;48.720;9.588;2022-08-21T14:27:40;45.90;27.40
18406;DHT22;9329;48.720;9.588;2022-08-21T14:30:12;47.00;28.00
18406;DHT22;9329;48.720;9.588;2022-08-21T14:32:40;47.00;27.50
18406;DHT22;9329;48.720;9.588;2022-08-21T14:35:08;47.30;26.40
18406;DHT22;9329;48.720;9.588;2022-08-21T14:37:35;47.00;23.90
18406;DHT22;9329;48.720;9.588;2022-08-21T14:40:04;47.00;25.70
18406;DHT22;9329;48.720;9.588;2022-08-21T14:42:32;47.80;26.90
18406;DHT22;9329;48.720;9.588;2022-08-21T14:45:03;48.30;24.10
18406;DHT22;9329;48.720;9.588;2022-08-21T14:47:33;48.80;24.60
18406;DHT22;9329;48.720;9.588;2022-08-21T14:50:02;48.10;24.40
18406;DHT22;9329;48.720;9.588;2022-08-21T14:52:30;48.50;25.90
18406;DHT22;9329;48.720;9.588;2022-08-21T14:54:58;49.10;24.50
18406;DHT22;9329;48.720;9.588;2022-08-21T14:57:26;48.50;24.70
18406;DHT22;9329;48.720;9.588;2022-08-21T14:59:56;46.20;25.70
18406;DHT22;9329;48.720;9.588;2022-08-21T15:02:23;45.70;25.80
18406;DHT22;9329;48.720;9.588;2022-08-21T15:04:51;47.10;25.30
18406;DHT22;9329;48.720;9.588;2022-08-21T15:07:18;48.50;25.80
18406;DHT22;9329;48.720;9.588;2022-08-21T15:09:45;49.20;24.00
18406;DHT22;9329;48.720;9.588;2022-08-21T15:12:13;49.70;24.80
18406;DHT22;9329;48.720;9.588;2022-08-21T15:14:41;50.00;25.10
18406;DHT22;9329;48.720;9.588;2022-08-21T15:17:09;50.00;22.70
18406;DHT22;9329;48.720;9.588;2022-08-21T15:19:40;49.30;23.80
18406;DHT22;9329;48.720;9.588;2022-08-21T15:22:09;47.80;24.20
18406;DHT22;9329;48.720;9.588;2022-08-21T15:24:36;48.80;25.90
18406;DHT22;9329;48.720;9.588;2022-08-21T15:27:06;49.70;23.50
18406;DHT22;9329;48.720;9.588;2022-08-21T15:29:34;49.30;22.70
18406;DHT22;9329;48.720;9.588;2022-08-21T15:32:15;47.90;22.70
18406;DHT22;9329;48.720;9.588;2022-08-21T15:34:43;47.50;24.40
18406;DHT22;9329;48.720;9.588;2022-08-21T15:37:11;47.20;23.50
18406;DHT22;9329;48.720;9.588;2022-08-21T15:39:38;46.80;24.80
18406;DHT22;9329;48.720;9.588;2022-08-21T15:42:06;45.30;26.00
18406;DHT22;9329;48.720;9.588;2022-08-21T15:44:33;43.90;24.70
18406;DHT22;9329;48.720;9.588;2022-08-21T15:47:00;41.30;27.30
18406;DHT22;9329;48.720;9.588;2022-08-21T15:49:28;39.60;28.50
18406;DHT22;9329;48.720;9.588;2022-08-21T15:51:55;37.80;29.90
18406;DHT22;9329;48.720;9.588;2022-08-21T15:54:24;36.30;31.80
18406;DHT22;9329;48.720;9.588;2022-08-21T15:56:51;34.20;33.90
18406;DHT22;9329;48.720;9.588;2022-08-21T15:59:20;33.80;35.30
18406;DHT22;9329;48.720;9.588;2022-08-21T16:01:48;32.90;36.70
18406;DHT22;9329;48.720;9.588;2022-08-21T16:04:21;31.90;37.80
18406;DHT22;9329;48.720;9.588;2022-08-21T16:06:52;31.80;37.10
18406;DHT22;9329;48.720;9.588;2022-08-21T16:09:21;31.20;39.30